CheckWX is a tool to help pilots better visualize weather data.  It is not intended as a substitute for an official pre-flight weather briefing.

08:43:42 UTC

KRWL METAR
Rawlins Municipal / Harvey Field Airport
Rawlins, Wyoming, USA
Current

51 mins ago

KRWL 180753Z AUTO 27011KT 10SM CLR 08/M05 A2969 RMK AO2 SLP974 T00831050
Observed
Oct-18 @ 07:53 UTC
Wind
  • 270° at 11 KTS
Visibility
10 SM
Flight Rules
VFR
Cloud Levels
  • Clear skies
Temperature
C / 46°F
Dewpoint
-5°C / 23°F
Humidity
40%
Altimeter
29.69" Hg
Pressure
1005.42 hPa
Previous

2 hours ago

KRWL 180653Z AUTO 25013KT 10SM FEW080 BKN100 09/M06 A2970 RMK AO2 SLP981 T00941061 402000061
Observed
Oct-18 @ 06:53 UTC
Wind
  • 250° at 13 KTS
Visibility
10 SM
Flight Rules
VFR
Cloud Levels
  • Few at 8,000' AGL
  • Broken at 10,000' AGL
Temperature
C / 48°F
Dewpoint
-6°C / 21°F
Humidity
34%
Altimeter
29.7" Hg
Pressure
1005.72 hPa
Previous

3 hours ago

KRWL 180553Z AUTO 22004KT 10SM CLR 08/M07 A2970 RMK AO2 SLP978 T00831067 10167 20078 58004
Observed
Oct-18 @ 05:53 UTC
Wind
  • 220° at 4 KTS
Visibility
10 SM
Flight Rules
VFR
Cloud Levels
  • Clear skies
Temperature
C / 46°F
Dewpoint
-7°C / 19°F
Humidity
34%
Altimeter
29.7" Hg
Pressure
1005.72 hPa